sensor_id;sensor_type;location;lat;lon;timestamp;P1;durP1;ratioP1;P2;durP2;ratioP2
313;SDS011;143;51.634;7.112;2023-12-14T00:01:15;8.80;;;6.27;;
313;SDS011;143;51.634;7.112;2023-12-14T00:03:41;9.97;;;6.07;;
313;SDS011;143;51.634;7.112;2023-12-14T00:06:09;8.33;;;5.83;;
313;SDS011;143;51.634;7.112;2023-12-14T00:08:38;6.77;;;5.00;;
313;SDS011;143;51.634;7.112;2023-12-14T00:11:05;6.90;;;4.97;;
313;SDS011;143;51.634;7.112;2023-12-14T00:13:31;7.77;;;5.53;;
313;SDS011;143;51.634;7.112;2023-12-14T00:15:57;7.73;;;5.50;;
313;SDS011;143;51.634;7.112;2023-12-14T00:18:23;6.43;;;4.93;;
313;SDS011;143;51.634;7.112;2023-12-14T00:20:49;8.17;;;5.60;;
313;SDS011;143;51.634;7.112;2023-12-14T00:23:14;7.23;;;5.63;;
313;SDS011;143;51.634;7.112;2023-12-14T00:25:40;7.47;;;5.90;;
313;SDS011;143;51.634;7.112;2023-12-14T00:28:05;9.37;;;5.20;;
313;SDS011;143;51.634;7.112;2023-12-14T00:30:31;8.77;;;5.17;;
313;SDS011;143;51.634;7.112;2023-12-14T00:32:57;13.10;;;5.93;;
313;SDS011;143;51.634;7.112;2023-12-14T00:35:22;9.90;;;6.50;;
313;SDS011;143;51.634;7.112;2023-12-14T00:37:48;8.90;;;5.60;;
313;SDS011;143;51.634;7.112;2023-12-14T00:40:13;7.17;;;5.50;;
313;SDS011;143;51.634;7.112;2023-12-14T00:42:39;7.93;;;5.93;;
313;SDS011;143;51.634;7.112;2023-12-14T00:45:05;7.07;;;5.73;;
313;SDS011;143;51.634;7.112;2023-12-14T00:47:30;8.87;;;5.70;;
313;SDS011;143;51.634;7.112;2023-12-14T00:49:56;10.57;;;6.00;;
313;SDS011;143;51.634;7.112;2023-12-14T00:52:21;8.93;;;6.67;;
313;SDS011;143;51.634;7.112;2023-12-14T00:54:47;8.83;;;6.10;;
313;SDS011;143;51.634;7.112;2023-12-14T00:57:13;10.23;;;7.33;;
313;SDS011;143;51.634;7.112;2023-12-14T00:59:38;15.10;;;9.80;;
313;SDS011;143;51.634;7.112;2023-12-14T01:02:05;14.13;;;10.23;;
313;SDS011;143;51.634;7.112;2023-12-14T01:04:31;16.43;;;11.00;;
313;SDS011;143;51.634;7.112;2023-12-14T01:06:57;17.00;;;10.70;;
313;SDS011;143;51.634;7.112;2023-12-14T01:09:22;22.67;;;12.83;;
313;SDS011;143;51.634;7.112;2023-12-14T01:11:48;21.47;;;12.27;;
313;SDS011;143;51.634;7.112;2023-12-14T01:14:13;21.03;;;12.97;;
313;SDS011;143;51.634;7.112;2023-12-14T01:16:39;24.30;;;14.03;;
313;SDS011;143;51.634;7.112;2023-12-14T01:19:04;17.30;;;11.30;;
313;SDS011;143;51.634;7.112;2023-12-14T01:21:33;23.13;;;12.47;;
313;SDS011;143;51.634;7.112;2023-12-14T01:23:58;17.97;;;11.70;;
313;SDS011;143;51.634;7.112;2023-12-14T01:26:25;22.87;;;13.13;;
313;SDS011;143;51.634;7.112;2023-12-14T01:28:51;23.77;;;13.77;;
313;SDS011;143;51.634;7.112;2023-12-14T01:31:17;24.73;;;13.17;;
313;SDS011;143;51.634;7.112;2023-12-14T01:33:42;20.77;;;12.47;;
313;SDS011;143;51.634;7.112;2023-12-14T01:36:08;20.90;;;12.90;;
313;SDS011;143;51.634;7.112;2023-12-14T01:38:33;22.00;;;13.53;;
313;SDS011;143;51.634;7.112;2023-12-14T01:40:59;20.50;;;12.40;;
313;SDS011;143;51.634;7.112;2023-12-14T01:43:25;22.97;;;14.73;;
313;SDS011;143;51.634;7.112;2023-12-14T01:45:51;24.27;;;13.50;;
313;SDS011;143;51.634;7.112;2023-12-14T01:48:16;22.63;;;14.13;;
313;SDS011;143;51.634;7.112;2023-12-14T01:50:42;22.07;;;13.27;;
313;SDS011;143;51.634;7.112;2023-12-14T01:53:07;23.73;;;14.37;;
313;SDS011;143;51.634;7.112;2023-12-14T01:55:33;24.57;;;12.70;;
313;SDS011;143;51.634;7.112;2023-12-14T01:57:59;18.33;;;11.53;;
313;SDS011;143;51.634;7.112;2023-12-14T02:00:28;18.17;;;11.27;;
313;SDS011;143;51.634;7.112;2023-12-14T02:03:07;17.43;;;11.37;;
313;SDS011;143;51.634;7.112;2023-12-14T02:05:33;18.03;;;10.80;;
313;SDS011;143;51.634;7.112;2023-12-14T02:07:58;23.80;;;13.57;;
313;SDS011;143;51.634;7.112;2023-12-14T02:10:24;22.27;;;12.40;;
313;SDS011;143;51.634;7.112;2023-12-14T02:12:49;18.53;;;11.93;;
313;SDS011;143;51.634;7.112;2023-12-14T02:15:15;19.93;;;12.13;;
313;SDS011;143;51.634;7.112;2023-12-14T02:17:40;19.97;;;12.30;;
313;SDS011;143;51.634;7.112;2023-12-14T02:20:06;21.43;;;14.20;;
313;SDS011;143;51.634;7.112;2023-12-14T02:22:35;25.00;;;13.90;;
313;SDS011;143;51.634;7.112;2023-12-14T02:25:14;25.00;;;15.60;;
313;SDS011;143;51.634;7.112;2023-12-14T02:27:39;27.33;;;13.50;;
313;SDS011;143;51.634;7.112;2023-12-14T02:30:05;22.53;;;13.70;;
313;SDS011;143;51.634;7.112;2023-12-14T02:32:31;18.47;;;13.13;;
313;SDS011;143;51.634;7.112;2023-12-14T02:34:56;25.53;;;14.70;;
313;SDS011;143;51.634;7.112;2023-12-14T02:37:22;23.90;;;13.90;;
313;SDS011;143;51.634;7.112;2023-12-14T02:39:47;25.63;;;15.33;;
313;SDS011;143;51.634;7.112;2023-12-14T02:42:13;22.43;;;15.03;;
313;SDS011;143;51.634;7.112;2023-12-14T02:44:38;25.23;;;14.87;;
313;SDS011;143;51.634;7.112;2023-12-14T02:47:04;24.37;;;14.63;;
313;SDS011;143;51.634;7.112;2023-12-14T02:49:29;28.37;;;16.47;;
313;SDS011;143;51.634;7.112;2023-12-14T02:51:55;22.13;;;14.23;;
313;SDS011;143;51.634;7.112;2023-12-14T02:54:21;23.13;;;14.40;;
313;SDS011;143;51.634;7.112;2023-12-14T02:56:46;29.50;;;14.60;;
313;SDS011;143;51.634;7.112;2023-12-14T02:59:12;21.77;;;14.03;;
313;SDS011;143;51.634;7.112;2023-12-14T03:01:37;27.97;;;14.70;;
313;SDS011;143;51.634;7.112;2023-12-14T03:04:04;24.23;;;14.30;;
313;SDS011;143;51.634;7.112;2023-12-14T03:06:29;29.53;;;14.70;;
313;SDS011;143;51.634;7.112;2023-12-14T03:08:58;21.20;;;13.00;;
313;SDS011;143;51.634;7.112;2023-12-14T03:11:23;24.60;;;13.70;;
313;SDS011;143;51.634;7.112;2023-12-14T03:13:49;26.30;;;14.07;;
313;SDS011;143;51.634;7.112;2023-12-14T03:16:15;22.60;;;13.30;;
313;SDS011;143;51.634;7.112;2023-12-14T03:18:42;25.40;;;13.57;;
313;SDS011;143;51.634;7.112;2023-12-14T03:21:07;26.37;;;13.90;;
313;SDS011;143;51.634;7.112;2023-12-14T03:23:34;21.80;;;12.17;;
313;SDS011;143;51.634;7.112;2023-12-14T03:25:59;18.93;;;12.00;;
313;SDS011;143;51.634;7.112;2023-12-14T03:28:26;22.97;;;12.67;;
313;SDS011;143;51.634;7.112;2023-12-14T03:30:52;19.53;;;11.93;;
313;SDS011;143;51.634;7.112;2023-12-14T03:33:17;19.83;;;12.47;;
313;SDS011;143;51.634;7.112;2023-12-14T03:35:43;21.83;;;13.90;;
313;SDS011;143;51.634;7.112;2023-12-14T03:38:09;22.07;;;12.83;;
313;SDS011;143;51.634;7.112;2023-12-14T03:40:35;18.90;;;11.50;;
313;SDS011;143;51.634;7.112;2023-12-14T03:43:00;18.33;;;11.70;;
313;SDS011;143;51.634;7.112;2023-12-14T03:45:28;18.50;;;11.90;;
313;SDS011;143;51.634;7.112;2023-12-14T03:47:54;16.70;;;11.10;;
313;SDS011;143;51.634;7.112;2023-12-14T03:50:19;18.30;;;11.43;;
313;SDS011;143;51.634;7.112;2023-12-14T03:52:45;19.00;;;11.30;;
313;SDS011;143;51.634;7.112;2023-12-14T03:55:11;19.20;;;10.63;;
313;SDS011;143;51.634;7.112;2023-12-14T03:57:37;24.20;;;12.90;;
313;SDS011;143;51.634;7.112;2023-12-14T04:00:03;19.77;;;12.50;;
313;SDS011;143;51.634;7.112;2023-12-14T04:02:28;24.63;;;13.30;;
313;SDS011;143;51.634;7.112;2023-12-14T04:04:54;20.00;;;13.30;;
313;SDS011;143;51.634;7.112;2023-12-14T04:07:20;25.70;;;13.70;;
313;SDS011;143;51.634;7.112;2023-12-14T04:09:46;21.33;;;12.97;;
313;SDS011;143;51.634;7.112;2023-12-14T04:12:12;24.07;;;13.83;;
313;SDS011;143;51.634;7.112;2023-12-14T04:14:38;24.90;;;12.43;;
313;SDS011;143;51.634;7.112;2023-12-14T04:17:03;20.70;;;12.37;;
313;SDS011;143;51.634;7.112;2023-12-14T04:19:29;19.43;;;10.97;;
313;SDS011;143;51.634;7.112;2023-12-14T04:21:54;18.97;;;11.90;;
313;SDS011;143;51.634;7.112;2023-12-14T04:24:20;18.80;;;11.20;;
313;SDS011;143;51.634;7.112;2023-12-14T04:26:47;18.40;;;11.10;;
313;SDS011;143;51.634;7.112;2023-12-14T04:29:12;25.03;;;10.90;;
313;SDS011;143;51.634;7.112;2023-12-14T04:31:38;21.70;;;11.70;;
313;SDS011;143;51.634;7.112;2023-12-14T04:34:03;21.10;;;11.23;;
313;SDS011;143;51.634;7.112;2023-12-14T04:36:29;26.83;;;14.27;;
313;SDS011;143;51.634;7.112;2023-12-14T04:38:54;21.57;;;11.63;;
313;SDS011;143;51.634;7.112;2023-12-14T04:41:20;18.83;;;10.93;;
313;SDS011;143;51.634;7.112;2023-12-14T04:43:45;17.30;;;10.53;;
313;SDS011;143;51.634;7.112;2023-12-14T04:46:11;18.90;;;10.77;;
313;SDS011;143;51.634;7.112;2023-12-14T04:48:36;18.97;;;11.70;;
313;SDS011;143;51.634;7.112;2023-12-14T04:51:02;18.97;;;11.47;;
313;SDS011;143;51.634;7.112;2023-12-14T04:53:28;22.57;;;12.37;;
313;SDS011;143;51.634;7.112;2023-12-14T04:55:53;20.10;;;12.47;;
313;SDS011;143;51.634;7.112;2023-12-14T04:58:19;21.50;;;13.20;;
313;SDS011;143;51.634;7.112;2023-12-14T05:00:44;30.50;;;14.40;;
313;SDS011;143;51.634;7.112;2023-12-14T05:03:10;32.40;;;15.67;;
313;SDS011;143;51.634;7.112;2023-12-14T05:05:36;26.40;;;14.37;;
313;SDS011;143;51.634;7.112;2023-12-14T05:08:01;32.50;;;15.90;;
313;SDS011;143;51.634;7.112;2023-12-14T05:10:27;24.60;;;14.30;;
313;SDS011;143;51.634;7.112;2023-12-14T05:12:52;32.43;;;15.13;;
313;SDS011;143;51.634;7.112;2023-12-14T05:15:18;29.53;;;16.70;;
313;SDS011;143;51.634;7.112;2023-12-14T05:17:45;30.77;;;15.80;;
313;SDS011;143;51.634;7.112;2023-12-14T05:20:10;24.17;;;13.67;;
313;SDS011;143;51.634;7.112;2023-12-14T05:22:36;23.87;;;13.87;;
313;SDS011;143;51.634;7.112;2023-12-14T05:25:02;28.83;;;15.57;;
313;SDS011;143;51.634;7.112;2023-12-14T05:27:29;28.77;;;15.77;;
313;SDS011;143;51.634;7.112;2023-12-14T05:29:54;29.23;;;16.83;;
313;SDS011;143;51.634;7.112;2023-12-14T05:32:20;25.37;;;15.50;;
313;SDS011;143;51.634;7.112;2023-12-14T05:34:45;31.80;;;15.33;;
313;SDS011;143;51.634;7.112;2023-12-14T05:37:11;31.07;;;16.43;;
313;SDS011;143;51.634;7.112;2023-12-14T05:39:37;39.97;;;15.87;;
313;SDS011;143;51.634;7.112;2023-12-14T05:42:05;26.60;;;14.60;;
313;SDS011;143;51.634;7.112;2023-12-14T05:44:31;23.90;;;13.90;;
313;SDS011;143;51.634;7.112;2023-12-14T05:46:56;23.90;;;13.13;;
313;SDS011;143;51.634;7.112;2023-12-14T05:49:22;25.60;;;13.40;;
313;SDS011;143;51.634;7.112;2023-12-14T05:51:47;25.03;;;14.20;;
313;SDS011;143;51.634;7.112;2023-12-14T05:54:13;27.27;;;13.30;;
313;SDS011;143;51.634;7.112;2023-12-14T05:56:39;24.77;;;12.57;;
313;SDS011;143;51.634;7.112;2023-12-14T05:59:04;23.67;;;13.57;;
313;SDS011;143;51.634;7.112;2023-12-14T06:01:30;22.33;;;12.87;;
313;SDS011;143;51.634;7.112;2023-12-14T06:03:55;20.70;;;12.53;;
313;SDS011;143;51.634;7.112;2023-12-14T06:06:21;23.73;;;12.27;;
313;SDS011;143;51.634;7.112;2023-12-14T06:08:47;22.10;;;13.17;;
313;SDS011;143;51.634;7.112;2023-12-14T06:11:13;25.67;;;12.10;;
313;SDS011;143;51.634;7.112;2023-12-14T06:13:39;18.67;;;11.17;;
313;SDS011;143;51.634;7.112;2023-12-14T06:16:05;21.23;;;11.90;;
313;SDS011;143;51.634;7.112;2023-12-14T06:18:31;20.87;;;11.40;;
313;SDS011;143;51.634;7.112;2023-12-14T06:20:57;20.37;;;12.40;;
313;SDS011;143;51.634;7.112;2023-12-14T06:23:22;19.50;;;12.13;;
313;SDS011;143;51.634;7.112;2023-12-14T06:25:48;18.23;;;11.20;;
313;SDS011;143;51.634;7.112;2023-12-14T06:28:14;23.00;;;10.73;;
313;SDS011;143;51.634;7.112;2023-12-14T06:30:39;17.00;;;11.10;;
313;SDS011;143;51.634;7.112;2023-12-14T06:33:05;18.90;;;11.53;;
313;SDS011;143;51.634;7.112;2023-12-14T06:35:30;22.33;;;12.93;;
313;SDS011;143;51.634;7.112;2023-12-14T06:37:56;20.43;;;11.80;;
313;SDS011;143;51.634;7.112;2023-12-14T06:40:21;17.00;;;11.20;;
313;SDS011;143;51.634;7.112;2023-12-14T06:42:47;15.77;;;10.60;;
313;SDS011;143;51.634;7.112;2023-12-14T06:45:14;15.47;;;10.77;;
313;SDS011;143;51.634;7.112;2023-12-14T06:47:40;24.83;;;11.77;;
313;SDS011;143;51.634;7.112;2023-12-14T06:50:07;22.07;;;12.10;;
313;SDS011;143;51.634;7.112;2023-12-14T06:52:34;20.67;;;11.30;;
313;SDS011;143;51.634;7.112;2023-12-14T06:54:59;19.13;;;12.10;;
313;SDS011;143;51.634;7.112;2023-12-14T06:57:25;19.50;;;12.10;;
313;SDS011;143;51.634;7.112;2023-12-14T06:59:51;20.83;;;12.60;;
313;SDS011;143;51.634;7.112;2023-12-14T07:02:17;18.53;;;11.27;;
313;SDS011;143;51.634;7.112;2023-12-14T07:04:43;22.07;;;12.63;;
313;SDS011;143;51.634;7.112;2023-12-14T07:07:09;28.40;;;13.23;;
313;SDS011;143;51.634;7.112;2023-12-14T07:09:35;26.13;;;14.00;;
313;SDS011;143;51.634;7.112;2023-12-14T07:12:00;23.23;;;13.70;;
313;SDS011;143;51.634;7.112;2023-12-14T07:14:27;26.30;;;12.97;;
313;SDS011;143;51.634;7.112;2023-12-14T07:16:53;22.90;;;15.03;;
313;SDS011;143;51.634;7.112;2023-12-14T07:19:18;24.40;;;14.70;;
313;SDS011;143;51.634;7.112;2023-12-14T07:21:44;27.93;;;14.83;;
313;SDS011;143;51.634;7.112;2023-12-14T07:24:09;33.77;;;17.27;;
313;SDS011;143;51.634;7.112;2023-12-14T07:26:35;26.33;;;15.50;;
313;SDS011;143;51.634;7.112;2023-12-14T07:29:00;30.00;;;16.50;;
313;SDS011;143;51.634;7.112;2023-12-14T07:31:26;32.83;;;18.00;;
313;SDS011;143;51.634;7.112;2023-12-14T07:33:54;32.33;;;17.40;;
313;SDS011;143;51.634;7.112;2023-12-14T07:36:23;25.47;;;15.37;;
313;SDS011;143;51.634;7.112;2023-12-14T07:38:49;30.83;;;14.67;;
313;SDS011;143;51.634;7.112;2023-12-14T07:41:14;31.23;;;15.87;;
313;SDS011;143;51.634;7.112;2023-12-14T07:43:40;29.63;;;15.63;;
313;SDS011;143;51.634;7.112;2023-12-14T07:46:06;28.97;;;17.23;;
313;SDS011;143;51.634;7.112;2023-12-14T07:48:31;28.37;;;15.87;;
313;SDS011;143;51.634;7.112;2023-12-14T07:50:57;27.60;;;16.30;;
313;SDS011;143;51.634;7.112;2023-12-14T07:53:22;28.00;;;16.27;;
313;SDS011;143;51.634;7.112;2023-12-14T07:55:48;24.57;;;15.27;;
313;SDS011;143;51.634;7.112;2023-12-14T07:58:14;30.73;;;16.03;;
313;SDS011;143;51.634;7.112;2023-12-14T08:00:39;25.47;;;16.13;;
313;SDS011;143;51.634;7.112;2023-12-14T08:03:05;26.23;;;14.70;;
313;SDS011;143;51.634;7.112;2023-12-14T08:05:30;32.53;;;17.50;;
313;SDS011;143;51.634;7.112;2023-12-14T08:07:56;34.87;;;16.50;;
313;SDS011;143;51.634;7.112;2023-12-14T08:10:22;31.97;;;16.20;;
313;SDS011;143;51.634;7.112;2023-12-14T08:12:47;28.90;;;16.53;;
313;SDS011;143;51.634;7.112;2023-12-14T08:15:13;29.07;;;15.23;;
313;SDS011;143;51.634;7.112;2023-12-14T08:17:38;26.80;;;16.27;;
313;SDS011;143;51.634;7.112;2023-12-14T08:20:04;27.00;;;16.03;;
313;SDS011;143;51.634;7.112;2023-12-14T08:22:33;26.80;;;16.90;;
313;SDS011;143;51.634;7.112;2023-12-14T08:24:59;29.37;;;16.80;;
313;SDS011;143;51.634;7.112;2023-12-14T08:27:25;30.77;;;17.20;;
313;SDS011;143;51.634;7.112;2023-12-14T08:29:50;30.47;;;16.97;;
313;SDS011;143;51.634;7.112;2023-12-14T08:32:16;28.67;;;16.90;;
313;SDS011;143;51.634;7.112;2023-12-14T08:34:41;26.83;;;15.50;;
313;SDS011;143;51.634;7.112;2023-12-14T08:37:07;27.57;;;16.70;;
313;SDS011;143;51.634;7.112;2023-12-14T08:39:33;26.70;;;17.33;;
313;SDS011;143;51.634;7.112;2023-12-14T08:41:58;27.63;;;16.37;;
313;SDS011;143;51.634;7.112;2023-12-14T08:44:24;35.53;;;18.00;;
313;SDS011;143;51.634;7.112;2023-12-14T08:46:49;30.40;;;17.50;;
313;SDS011;143;51.634;7.112;2023-12-14T08:49:15;28.83;;;15.60;;
313;SDS011;143;51.634;7.112;2023-12-14T08:51:41;44.07;;;18.47;;
313;SDS011;143;51.634;7.112;2023-12-14T08:54:07;30.80;;;16.90;;
313;SDS011;143;51.634;7.112;2023-12-14T08:56:32;34.43;;;16.37;;
313;SDS011;143;51.634;7.112;2023-12-14T08:58:58;29.47;;;16.87;;
313;SDS011;143;51.634;7.112;2023-12-14T09:01:25;30.63;;;16.97;;
313;SDS011;143;51.634;7.112;2023-12-14T09:03:50;32.27;;;17.67;;
313;SDS011;143;51.634;7.112;2023-12-14T09:06:16;31.23;;;18.17;;
313;SDS011;143;51.634;7.112;2023-12-14T09:08:43;31.60;;;17.27;;
313;SDS011;143;51.634;7.112;2023-12-14T09:11:09;26.47;;;16.53;;
313;SDS011;143;51.634;7.112;2023-12-14T09:13:35;28.13;;;17.40;;
313;SDS011;143;51.634;7.112;2023-12-14T09:16:00;28.80;;;16.50;;
313;SDS011;143;51.634;7.112;2023-12-14T09:18:26;27.13;;;16.20;;
313;SDS011;143;51.634;7.112;2023-12-14T09:20:52;34.47;;;18.83;;
313;SDS011;143;51.634;7.112;2023-12-14T09:23:17;28.10;;;16.00;;
313;SDS011;143;51.634;7.112;2023-12-14T09:25:44;29.53;;;16.57;;
313;SDS011;143;51.634;7.112;2023-12-14T09:28:10;29.43;;;16.50;;
313;SDS011;143;51.634;7.112;2023-12-14T09:30:35;37.20;;;16.33;;
313;SDS011;143;51.634;7.112;2023-12-14T09:33:01;29.10;;;15.97;;
313;SDS011;143;51.634;7.112;2023-12-14T09:35:26;29.87;;;17.63;;
313;SDS011;143;51.634;7.112;2023-12-14T09:37:52;25.93;;;16.17;;
313;SDS011;143;51.634;7.112;2023-12-14T09:40:18;27.60;;;16.70;;
313;SDS011;143;51.634;7.112;2023-12-14T09:42:44;30.00;;;17.17;;
313;SDS011;143;51.634;7.112;2023-12-14T09:45:10;25.63;;;15.90;;
313;SDS011;143;51.634;7.112;2023-12-14T09:47:36;27.10;;;15.77;;
313;SDS011;143;51.634;7.112;2023-12-14T09:50:03;27.00;;;16.00;;
313;SDS011;143;51.634;7.112;2023-12-14T09:52:29;24.00;;;15.70;;
313;SDS011;143;51.634;7.112;2023-12-14T09:54:54;28.73;;;16.57;;
313;SDS011;143;51.634;7.112;2023-12-14T09:57:20;34.53;;;17.53;;
313;SDS011;143;51.634;7.112;2023-12-14T09:59:52;29.70;;;16.10;;
313;SDS011;143;51.634;7.112;2023-12-14T10:02:19;29.23;;;16.53;;
313;SDS011;143;51.634;7.112;2023-12-14T10:04:45;30.50;;;17.43;;
313;SDS011;143;51.634;7.112;2023-12-14T10:07:11;29.20;;;16.37;;
313;SDS011;143;51.634;7.112;2023-12-14T10:09:37;26.57;;;15.57;;
313;SDS011;143;51.634;7.112;2023-12-14T10:12:04;27.23;;;15.67;;
313;SDS011;143;51.634;7.112;2023-12-14T10:14:31;27.50;;;15.50;;
313;SDS011;143;51.634;7.112;2023-12-14T10:16:57;29.47;;;15.27;;
313;SDS011;143;51.634;7.112;2023-12-14T10:19:23;26.10;;;15.73;;
313;SDS011;143;51.634;7.112;2023-12-14T10:21:49;25.90;;;16.10;;
313;SDS011;143;51.634;7.112;2023-12-14T10:24:15;31.20;;;16.20;;
313;SDS011;143;51.634;7.112;2023-12-14T10:26:44;25.90;;;14.47;;
313;SDS011;143;51.634;7.112;2023-12-14T10:29:10;25.80;;;15.00;;
313;SDS011;143;51.634;7.112;2023-12-14T10:31:36;28.40;;;15.73;;
313;SDS011;143;51.634;7.112;2023-12-14T10:34:03;27.20;;;14.60;;
313;SDS011;143;51.634;7.112;2023-12-14T10:36:29;25.67;;;12.97;;
313;SDS011;143;51.634;7.112;2023-12-14T10:38:59;23.87;;;13.73;;
313;SDS011;143;51.634;7.112;2023-12-14T10:41:25;27.40;;;13.70;;
313;SDS011;143;51.634;7.112;2023-12-14T10:43:54;25.73;;;14.10;;
313;SDS011;143;51.634;7.112;2023-12-14T10:46:21;26.53;;;14.93;;
313;SDS011;143;51.634;7.112;2023-12-14T10:48:48;25.77;;;14.30;;
313;SDS011;143;51.634;7.112;2023-12-14T10:51:16;29.87;;;15.60;;
313;SDS011;143;51.634;7.112;2023-12-14T10:53:44;25.57;;;14.50;;
313;SDS011;143;51.634;7.112;2023-12-14T10:56:14;35.23;;;16.00;;
313;SDS011;143;51.634;7.112;2023-12-14T10:58:49;31.23;;;16.90;;
313;SDS011;143;51.634;7.112;2023-12-14T11:01:16;30.47;;;15.87;;
313;SDS011;143;51.634;7.112;2023-12-14T11:03:44;27.53;;;15.80;;
313;SDS011;143;51.634;7.112;2023-12-14T11:09:07;28.23;;;15.53;;
313;SDS011;143;51.634;7.112;2023-12-14T11:14:21;26.90;;;15.27;;
313;SDS011;143;51.634;7.112;2023-12-14T11:16:54;27.03;;;15.00;;
313;SDS011;143;51.634;7.112;2023-12-14T11:22:33;26.47;;;16.20;;
313;SDS011;143;51.634;7.112;2023-12-14T11:24:34;28.83;;;16.20;;
313;SDS011;143;51.634;7.112;2023-12-14T11:27:03;27.37;;;16.47;;
313;SDS011;143;51.634;7.112;2023-12-14T11:29:29;31.17;;;17.40;;
313;SDS011;143;51.634;7.112;2023-12-14T11:31:55;30.67;;;16.03;;
313;SDS011;143;51.634;7.112;2023-12-14T11:34:23;24.43;;;14.07;;
313;SDS011;143;51.634;7.112;2023-12-14T11:36:49;24.77;;;13.77;;
313;SDS011;143;51.634;7.112;2023-12-14T11:39:15;22.00;;;12.70;;
313;SDS011;143;51.634;7.112;2023-12-14T11:41:40;25.30;;;14.00;;
313;SDS011;143;51.634;7.112;2023-12-14T11:44:06;27.33;;;14.50;;
313;SDS011;143;51.634;7.112;2023-12-14T11:46:32;28.87;;;14.73;;
313;SDS011;143;51.634;7.112;2023-12-14T11:48:58;32.20;;;16.13;;
313;SDS011;143;51.634;7.112;2023-12-14T11:51:24;32.63;;;15.50;;
313;SDS011;143;51.634;7.112;2023-12-14T11:53:55;28.90;;;15.23;;
313;SDS011;143;51.634;7.112;2023-12-14T11:56:20;29.53;;;15.53;;
313;SDS011;143;51.634;7.112;2023-12-14T11:58:48;32.10;;;16.90;;
313;SDS011;143;51.634;7.112;2023-12-14T12:03:41;27.00;;;13.90;;
313;SDS011;143;51.634;7.112;2023-12-14T12:06:08;27.03;;;15.43;;
313;SDS011;143;51.634;7.112;2023-12-14T12:08:45;27.13;;;16.27;;
313;SDS011;143;51.634;7.112;2023-12-14T12:11:11;30.37;;;16.67;;
313;SDS011;143;51.634;7.112;2023-12-14T12:13:49;25.80;;;15.77;;
313;SDS011;143;51.634;7.112;2023-12-14T12:16:16;27.70;;;15.57;;
313;SDS011;143;51.634;7.112;2023-12-14T12:18:42;26.07;;;14.93;;
313;SDS011;143;51.634;7.112;2023-12-14T12:21:07;25.53;;;14.47;;
313;SDS011;143;51.634;7.112;2023-12-14T12:23:34;26.83;;;15.07;;
313;SDS011;143;51.634;7.112;2023-12-14T12:26:00;28.43;;;16.03;;
313;SDS011;143;51.634;7.112;2023-12-14T12:28:25;25.27;;;15.03;;
313;SDS011;143;51.634;7.112;2023-12-14T12:30:51;26.60;;;13.33;;
313;SDS011;143;51.634;7.112;2023-12-14T12:33:16;25.70;;;13.33;;
313;SDS011;143;51.634;7.112;2023-12-14T12:35:42;26.13;;;13.50;;
313;SDS011;143;51.634;7.112;2023-12-14T12:38:07;25.40;;;14.20;;
313;SDS011;143;51.634;7.112;2023-12-14T12:40:33;27.80;;;15.00;;
313;SDS011;143;51.634;7.112;2023-12-14T12:42:59;26.67;;;15.00;;
313;SDS011;143;51.634;7.112;2023-12-14T12:45:24;28.40;;;15.50;;
313;SDS011;143;51.634;7.112;2023-12-14T12:47:53;28.60;;;16.90;;
313;SDS011;143;51.634;7.112;2023-12-14T12:50:19;27.60;;;15.20;;
313;SDS011;143;51.634;7.112;2023-12-14T12:52:45;27.47;;;15.13;;
313;SDS011;143;51.634;7.112;2023-12-14T12:55:13;26.83;;;15.50;;
313;SDS011;143;51.634;7.112;2023-12-14T12:57:39;29.40;;;15.57;;
313;SDS011;143;51.634;7.112;2023-12-14T13:00:06;25.70;;;15.10;;
313;SDS011;143;51.634;7.112;2023-12-14T13:02:39;28.13;;;15.17;;
313;SDS011;143;51.634;7.112;2023-12-14T13:05:09;26.03;;;14.70;;
313;SDS011;143;51.634;7.112;2023-12-14T13:07:35;27.40;;;16.23;;
313;SDS011;143;51.634;7.112;2023-12-14T13:10:02;32.43;;;18.10;;
313;SDS011;143;51.634;7.112;2023-12-14T13:12:28;32.60;;;17.17;;
313;SDS011;143;51.634;7.112;2023-12-14T13:14:54;28.97;;;17.17;;
313;SDS011;143;51.634;7.112;2023-12-14T13:17:20;31.33;;;17.97;;
313;SDS011;143;51.634;7.112;2023-12-14T13:19:46;31.10;;;18.70;;
313;SDS011;143;51.634;7.112;2023-12-14T13:22:11;36.93;;;16.97;;
313;SDS011;143;51.634;7.112;2023-12-14T13:24:37;31.57;;;17.23;;
313;SDS011;143;51.634;7.112;2023-12-14T13:27:03;31.90;;;19.63;;
313;SDS011;143;51.634;7.112;2023-12-14T13:29:30;32.30;;;17.13;;
313;SDS011;143;51.634;7.112;2023-12-14T13:31:59;32.17;;;17.83;;
313;SDS011;143;51.634;7.112;2023-12-14T13:34:26;28.10;;;17.07;;
313;SDS011;143;51.634;7.112;2023-12-14T13:36:52;32.10;;;17.67;;
313;SDS011;143;51.634;7.112;2023-12-14T13:39:18;30.30;;;17.27;;
313;SDS011;143;51.634;7.112;2023-12-14T13:41:44;33.30;;;18.57;;
313;SDS011;143;51.634;7.112;2023-12-14T13:44:10;30.83;;;17.37;;
313;SDS011;143;51.634;7.112;2023-12-14T13:46:35;29.97;;;16.90;;
313;SDS011;143;51.634;7.112;2023-12-14T13:49:01;29.00;;;17.10;;
313;SDS011;143;51.634;7.112;2023-12-14T13:51:27;29.90;;;17.50;;
313;SDS011;143;51.634;7.112;2023-12-14T13:53:52;31.87;;;18.93;;
313;SDS011;143;51.634;7.112;2023-12-14T13:56:18;30.30;;;17.60;;
313;SDS011;143;51.634;7.112;2023-12-14T13:58:43;31.20;;;18.37;;
313;SDS011;143;51.634;7.112;2023-12-14T14:01:09;35.70;;;19.50;;
313;SDS011;143;51.634;7.112;2023-12-14T14:03:35;32.93;;;19.50;;
313;SDS011;143;51.634;7.112;2023-12-14T14:06:02;37.27;;;20.67;;
313;SDS011;143;51.634;7.112;2023-12-14T14:08:28;31.53;;;18.03;;
313;SDS011;143;51.634;7.112;2023-12-14T14:10:56;35.93;;;19.50;;
313;SDS011;143;51.634;7.112;2023-12-14T14:13:25;31.00;;;17.10;;
313;SDS011;143;51.634;7.112;2023-12-14T14:15:51;34.23;;;19.83;;
313;SDS011;143;51.634;7.112;2023-12-14T14:18:16;29.83;;;15.67;;
313;SDS011;143;51.634;7.112;2023-12-14T14:20:42;26.40;;;16.27;;
313;SDS011;143;51.634;7.112;2023-12-14T14:23:08;27.07;;;15.10;;
313;SDS011;143;51.634;7.112;2023-12-14T14:25:33;26.03;;;15.43;;
313;SDS011;143;51.634;7.112;2023-12-14T14:27:59;21.80;;;13.40;;
313;SDS011;143;51.634;7.112;2023-12-14T14:30:25;26.53;;;15.50;;
313;SDS011;143;51.634;7.112;2023-12-14T14:32:51;22.10;;;13.13;;
313;SDS011;143;51.634;7.112;2023-12-14T14:35:16;22.07;;;11.43;;
313;SDS011;143;51.634;7.112;2023-12-14T14:37:42;18.93;;;12.60;;
313;SDS011;143;51.634;7.112;2023-12-14T14:40:11;20.07;;;12.97;;
313;SDS011;143;51.634;7.112;2023-12-14T14:42:40;20.10;;;12.00;;
313;SDS011;143;51.634;7.112;2023-12-14T14:45:06;21.20;;;12.20;;
313;SDS011;143;51.634;7.112;2023-12-14T14:47:33;17.83;;;10.97;;
313;SDS011;143;51.634;7.112;2023-12-14T14:49:59;20.17;;;11.57;;
313;SDS011;143;51.634;7.112;2023-12-14T14:52:29;18.00;;;11.17;;
313;SDS011;143;51.634;7.112;2023-12-14T14:54:55;16.53;;;9.90;;
313;SDS011;143;51.634;7.112;2023-12-14T14:57:21;20.60;;;11.10;;
313;SDS011;143;51.634;7.112;2023-12-14T14:59:46;21.13;;;12.47;;
313;SDS011;143;51.634;7.112;2023-12-14T15:02:12;25.50;;;14.50;;
313;SDS011;143;51.634;7.112;2023-12-14T15:04:37;18.80;;;11.57;;
313;SDS011;143;51.634;7.112;2023-12-14T15:07:03;19.67;;;11.67;;
313;SDS011;143;51.634;7.112;2023-12-14T15:09:28;20.23;;;12.13;;
313;SDS011;143;51.634;7.112;2023-12-14T15:11:56;23.30;;;13.63;;
313;SDS011;143;51.634;7.112;2023-12-14T15:14:22;28.10;;;16.73;;
313;SDS011;143;51.634;7.112;2023-12-14T15:16:47;33.20;;;18.17;;
313;SDS011;143;51.634;7.112;2023-12-14T15:19:13;32.73;;;18.70;;
313;SDS011;143;51.634;7.112;2023-12-14T15:21:39;23.00;;;14.23;;